Aviation Digital Data Service (ADDS)

Output produced by METARs form (1348 UTC 26 May 2018)
found at http://www.aviationweather.gov/adds/metars/
 
KSAC 261135Z 2612/2712 19004KT P6SM VCSH BKN060 OVC100 
     TEMPO 2614/2616 BKN025 
     FM270200 23006KT P6SM SKC
       
KSAF 261122Z 2612/2712 01006KT P6SM SKC 
     FM261800 21010KT P6SM SCT200 
     FM262100 21015G25KT P6SM BKN200 
     FM270100 16010KT P6SM BKN200 
     FM270800 03008KT P6SM SCT200
       
KSAN 261321Z 2613/2718 28006KT P6SM BKN021 BKN040 
     FM261900 28011KT P6SM SCT025 
     FM270300 30005KT P6SM BKN020
       
KSAT 261140Z 2612/2718 19007KT P6SM FEW250 
     FM262100 14006KT P6SM FEW050
       
KSAV 261123Z 2612/2712 17006KT P6SM SCT025 
     FM261600 17009KT P6SM VCSH SCT025 BKN040 
     FM261900 15012G17KT P6SM SCT040 BKN250 
     FM270000 VRB04KT P6SM SCT020
       
KSBA 261138Z 2612/2712 VRB03KT P6SM SKC 
     FM261700 16007KT P6SM SCT030 
     FM262000 23015KT P6SM SKC 
     FM270100 28010KT P6SM SKC WS015/33035KT 
     FM270500 VRB03KT P6SM SKC WS015/35030KT 
     FM271000 VRB03KT P6SM SKC
       
KSBD 261120Z 2612/2712 VRB03KT P6SM BKN025 OVC040 
     FM261600 VRB04KT 5SM HZ SCT025 
     FM262000 25009KT P6SM SCT025 
     FM270400 VRB04KT P6SM SCT025 
     FM270930 VRB03KT P6SM BKN015
       
KSBN 261120Z 2612/2712 VRB04KT P6SM VCSH BKN100 
     TEMPO 2612/2614 3SM -SHRA BR SCT040 BKN070 
     FM261400 23005KT P6SM SCT100 
     FM262100 28006KT P6SM SCT250
       
KSBP 261138Z 2612/2712 31006KT P6SM VCSH OVC015 
     FM261800 32010KT P6SM SCT020 SCT030 
     FM262100 31018G28KT P6SM SKC 
     FM270300 31010KT P6SM SKC 
     FM270800 VRB03KT P6SM BKN015
       
KSBY 261120Z 2612/2712 22010KT P6SM SCT250 
     FM262100 21009KT P6SM VCSH BKN040 
     FM270000 20006KT 6SM SHRA BKN040 
     FM270600 21007KT P6SM OVC040 
     FM270800 21008KT P6SM BKN020
       
KSCK 261135Z 2612/2712 31009KT P6SM SCT060 BKN100 
     FM270300 29009KT P6SM SKC
       
KSDF 261120Z 2612/2718 19004KT P6SM VCSH SCT040 BKN150 
     FM261700 23004KT P6SM VCTS BKN035CB 
     FM270100 22005KT P6SM BKN100
       
KSDL 261120Z 2612/2712 VRB04KT P6SM SCT250 
     FM262000 25010KT P6SM SCT250 
     FM270400 VRB04KT P6SM SCT250
       
KSDY 261121Z 2612/2712 VRB03KT P6SM SKC 
     FM270200 10007KT P6SM -SHRA VCTS BKN100CB 
     FM270400 04008KT P6SM -SHRA BKN090 
     PROB30 2704/2709 6SM -TSRA OVC060CB 
     FM270900 01012KT P6SM SCT060
       
KSEA 261130Z 2612/2718 19006KT P6SM BKN022 OVC035 
     FM261900 22006KT P6SM SCT022 BKN035 
     FM262100 25006KT P6SM SCT030 BKN045 
     FM270100 34006KT P6SM BKN045 BKN200 
     FM270800 01005KT P6SM SCT045 SCT200
       
KSEZ 261130Z 2612/2712 17006KT P6SM SCT250 
     FM261600 17010G20KT P6SM SCT250 
     FM261800 20018G28KT P6SM SCT250 
     FM270200 22011KT P6SM SKC
       
KSFB 261127Z 2612/2712 09005KT P6SM FEW025 BKN250 
     FM261400 12010KT P6SM SCT025 SCT100 OVC250 
     FM261800 12012KT P6SM -RA VCSH SCT025 BKN080 OVC150 
     TEMPO 2618/2622 4SM SHRA BKN025 
     FM270100 12009KT P6SM VCSH SCT025 BKN100 OVC200 
     FM270800 13011KT P6SM VCSH SCT020 OVC070
       
KSFF 261132Z 2612/2712 19009KT P6SM BKN090 OVC150 
     FM261600 21009KT P6SM SCT070 BKN120 
     FM262000 23008G14KT P6SM FEW050 BKN070 
     FM270300 23007KT P6SM FEW060 
     FM270600 00000KT P6SM SKC
       
KSFO 261120Z 2612/2718 25006KT P6SM -DZ BKN014 BKN030 
     FM261700 27011KT P6SM SCT020 BKN050 
     TEMPO 2617/2618 BKN020 
     FM261900 27013KT P6SM SCT030 SCT060 
     FM262200 27016G22KT P6SM FEW040 FEW060 
     FM270300 27013KT P6SM FEW015 
     FM270500 28010KT P6SM BKN012 
     FM271500 VRB05KT P6SM FEW015
       
KSGF 261120Z 2612/2712 VRB04KT P6SM FEW250
       
KSGJ 261120Z 2612/2712 19005KT P6SM SCT025 BKN250 
     FM261400 15008KT P6SM VCSH SCT020 BKN250 
     FM261700 12014KT P6SM SCT035 BKN250 
     FM270000 13011KT P6SM VCSH SCT040 OVC100 
     FM270500 13005KT 5SM -RA BKN040 OVC080
       
KSGU 261120Z 2612/2712 13005KT P6SM SKC 
     FM261800 24015G24KT P6SM SCT180 
     FM270100 25016G26KT P6SM SCT180 
     FM270400 22010KT P6SM SCT180
       
KSHR 261120Z 2612/2712 35003KT P6SM SKC 
     FM261500 18005KT P6SM FEW150 
     FM270300 VRB04KT P6SM BKN120 
     FM271000 VRB04KT P6SM VCSH BKN100
       
KSHV 261149Z 2612/2712 17003KT P6SM FEW050 SCT100 SCT200 
     FM261500 26006KT P6SM SCT045 SCT100 SCT250 
     FM261800 31005KT P6SM VCTS SCT050CB BKN100 
     FM270100 VRB04KT P6SM SCT050 SCT120 
     FM271000 08003KT 4SM BR SCT010
       
KSJC 261120Z 2612/2712 VRB04KT P6SM -DZ BKN025 BKN040 
     FM261700 30006KT P6SM SCT030 SCT050 
     TEMPO 2617/2618 BKN030 
     FM262100 31011KT P6SM SCT035 SCT060 
     FM270000 32014G21KT P6SM FEW040 FEW060 
     FM270500 31007KT P6SM FEW018 
     FM270800 VRB04KT P6SM SCT015
       
KSJT 261120Z 2612/2712 19011KT P6SM FEW250
       
TAF KSKA 261102Z 2611/2717 20009KT 9999 FEW030 BKN070 620805 QNH2984INS 
     BECMG 2614/2615 21012KT 9999 FEW060 BKN080 620904 QNH2993INS 
     TEMPO 2618/2624 21012G20KT 
     BECMG 2700/2701 22009KT 9999 SKC QNH2999INS TX21/2623Z TN12/2612Z
       
TAF KSKF 261000Z 2610/2716 17006KT 9999 SKC QNH2973INS TX36/2621Z TN21/2612Z
       
KSLC 261120Z 2612/2718 13009KT P6SM SKC 
     FM261700 18015G24KT P6SM SCT150 
     FM262300 32010KT P6SM SCT080 BKN150 
     FM270900 29005KT P6SM VCSH BKN100 OVC140
       
KSLE 261132Z 2612/2712 23004KT P6SM SCT030 BKN045 
     FM261500 20004KT P6SM BKN030 OVC045 
     FM261800 18006KT P6SM SCT035 BKN050 
     FM262300 28007KT P6SM SCT050
       
TAF AMD KSLI 261337Z 2613/2719 VRB06KT 9999 SCT010 OVC015 QNH3000INS 
     TEMPO 2613/2617 BKN020 
     BECMG 2617/2618 VRB06KT 9999 SCT020 QNH3001INS 
     BECMG 2620/2621 22009KT 9999 FEW020 QNH2999INS 
     BECMG 2703/2704 VRB06KT 9999 SCT010 BKN020 QNH2996INS 
     TEMPO 2710/2715 BKN007 OVC010 
     BECMG 2717/2718 22006KT 9999 FEW020 QNH2996INS TX21/2700Z TN15/2713Z
       
KSLK 261132Z 2612/2712 24006KT P6SM VCSH BKN060 
     FM261700 29007KT P6SM VCSH BKN050 
     FM262000 33008KT P6SM VCSH OVC028 
     FM262300 04006KT P6SM VCSH BKN025 
     FM270100 06005KT P6SM BKN035
       
KSLN 261122Z 2612/2712 20005KT P6SM SKC 
     FM261700 16009KT P6SM SKC
       
KSME 261137Z 2612/2712 VRB03KT P6SM SCT035 SCT250 
     FM261600 VRB03KT P6SM VCTS SCT035CB BKN250 
     FM261800 23005KT P6SM -SHRA VCTS SCT035CB BKN050 
     FM270100 VRB03KT P6SM BKN100 
     FM270600 VRB03KT 3SM BR BKN100
       
KSMF 261135Z 2612/2712 15005KT P6SM VCSH BKN050 
     FM261600 VRB03KT P6SM SCT250 
     FM262000 20007KT P6SM SCT250
       
KSMN 261133Z 2612/2712 VRB04KT P6SM FEW100 
     FM262100 02009KT P6SM VCSH BKN080 
     FM262300 02012G22KT P6SM -SHRA VCTS BKN060CB OVC080 
     FM270400 04010KT P6SM VCSH BKN060 BKN100
       
KSMO 261311Z 2613/2712 VRB03KT P6SM OVC011 
     FM261500 VRB03KT P6SM BKN017 
     FM261800 24012KT P6SM SCT030 
     FM270300 VRB03KT P6SM SKC 
     FM270900 VRB03KT P6SM BKN015
       
KSMX 261138Z 2612/2712 VRB03KT P6SM OVC017 
     FM261800 32010KT P6SM FEW020 SCT030 
     FM262100 31022G32KT P6SM SKC 
     FM270300 31012KT P6SM SKC 
     FM270700 VRB03KT P6SM BKN015 
     FM271000 VRB03KT 5SM BR OVC009
       
KSNA 261120Z 2612/2712 VRB04KT P6SM SCT015 SCT025 
     TEMPO 2612/2615 BKN025 
     FM261900 23010KT P6SM SCT025 
     FM270200 VRB04KT P6SM SCT020 
     FM270700 VRB03KT P6SM BKN018
       
KSNS 261120Z 2612/2712 27004KT 6SM -DZ BR BKN006 OVC018 
     FM261600 27006KT P6SM BKN018 BKN025 
     FM261800 27011KT P6SM SCT020 BKN035 
     FM262000 27012G18KT P6SM SCT022 BKN040 
     FM270300 25009KT P6SM BKN014 
     FM270700 26005KT P6SM OVC009
       
KSNY 261120Z 2612/2712 20008KT P6SM SKC 
     FM261700 16015G25KT P6SM SKC 
     FM270300 17022G32KT P6SM BKN150
       
KSPS 261120Z 2612/2712 18009KT P6SM SKC 
     FM262000 14010KT P6SM FEW250
       
KSRQ 261129Z 2612/2712 11009KT P6SM VCSH SCT020 BKN050 OVC100 
     TEMPO 2612/2615 6SM SHRA BKN030 OVC050 
     FM261500 12014G18KT P6SM SHRA VCTS BKN020CB OVC080 
     FM261800 12016G22KT P6SM SHRA VCTS BKN015CB OVC050 
     FM270300 10018G25KT 6SM SHRA VCTS OVC015CB 
     FM270500 11020G28KT 6SM SHRA VCTS OVC020CB
       
KSSF 261140Z 2612/2712 VRB04KT P6SM FEW050 
     FM262100 14006KT P6SM FEW050
       
KSTC 261120Z 2612/2712 20003KT P6SM SKC 
     FM261400 27009KT P6SM SKC 
     FM270100 00000KT P6SM SKC
       
KSTL 261126Z 2612/2718 VRB03KT P6SM SCT250
       
KSTS 261204Z 2612/2712 00000KT P6SM SCT004 BKN025 BKN040 
     FM261500 VRB03KT P6SM SCT025 SCT050 
     TEMPO 2615/2617 BKN025 
     FM262100 25009KT P6SM FEW040 FEW060 
     FM270300 17005KT P6SM SKC 
     FM271000 00000KT P6SM BKN007
       
KSUA 261127Z 2612/2712 12012KT P6SM VCSH SCT020 BKN080 OVC120 
     FM261600 13012KT P6SM -RA VCSH SCT025 BKN080 OVC150 
     FM270100 13010KT P6SM VCSH SCT025 BKN080 OVC200 
     FM270800 13011KT P6SM -SHRA SCT020 OVC070
       
KSUN 261121Z 2612/2718 32006KT P6SM SCT080 
     FM261800 13007KT P6SM VCTS SCT050 OVC080CB 
     FM270400 31007KT P6SM VCSH OVC060 AMD LTD TO CLD VIS AND WIND TIL 261300
       
KSUS 261126Z 2612/2712 VRB03KT P6SM SCT250
       
TAF KSUU 261100Z 2611/2717 23009KT 9999 VCSH BKN065 QNH3000INS 
     TEMPO 2611/2614 BKN015 
     BECMG 2615/2616 23009KT 9999 NSW BKN020 BKN100 QNH3004INS 
     BECMG 2618/2619 24009KT 9999 SCT030 QNH3000INS 
     BECMG 2621/2622 24012KT 9999 FEW050 QNH2997INS 
     BECMG 2705/2706 24009KT 8000 BR FEW100 QNH2996INS TX24/2623Z TN10/2614Z
       
KSUX 261122Z 2612/2712 VRB03KT P6SM SKC
       
KSWF 261141Z 2612/2718 VRB03KT P6SM FEW250 
     FM261500 27007KT P6SM SCT250 
     FM262000 27009KT P6SM VCTS SCT060CB BKN200 
     FM270000 28005KT P6SM VCTS SCT060CB BKN200 
     FM270500 VRB03KT 5SM -SHRA SCT060 OVC100 
     FM271000 08007KT P6SM VCSH OVC015 
     FM271200 08009KT P6SM VCSH OVC008 
     FM271500 07011KT P6SM VCSH OVC010 AMD NOT SKED
       
KSYR 261130Z 2612/2712 25009KT P6SM BKN250 
     FM261800 34008KT P6SM FEW035 BKN200 
     FM270500 09004KT P6SM OVC035
       
TAF KSZL 261100Z 2611/2717 22006KT 8000 BR FEW250 QNH2976INS 
     BECMG 2613/2614 24009KT 9999 NSW FEW040 SCT250 QNH2974INS 
     BECMG 2623/2624 20006KT 9999 SKC QNH2979INS TX34/2621Z TN18/2611Z